Revaz Kakabadze

Recruteur - Dinamo Batumi
3 Avr 2027
Samedi
Processus

Personnalité

Adaptabilité (5) Ambition (19) Controverse (16) Loyauté (5) Pression (13) Professionnalisme (7) Sportivité (1) Tempérament (5)

Profil

Style d'entraînement Démocratique
Diplôme Continental C
Détermination 4
Gestion des joueurs 8
Motivation 11
Discipline 10
Satisfaction professionnelle
50%
Fatigue
0%
Rôle Recruteur
Salaire 30.3K p/s
Contrat 14.03.2028

Performance

Comportement Normal
Efficacité de l'entraînement
14%
Développement des joueurs
35%
Prévention des blessures
15%
Mise en place tactique
30%

Événements récents

A participé à une réunion de recrutement maintenant
A recommandé une cible de transfert maintenant
A participé à une réunion de recrutement 7j
A évalué un joueur 7j
A évalué un joueur 7j
A évalué un joueur 7j
A évalué un joueur 7j
A évalué un joueur 7j

Suivi en cours

223
Joueur Club Statut Capacité Confiance Observé Dernière observation Dernier vote
Yegor Golenkov Rostov Actif 119 / 110 40% 1 27.03.2027 -
Paul Glatzel Swindon Town Actif 98 / 112 40% 1 27.03.2027 -
Ricky-Jade Jones St. Pauli Actif 123 / 128 40% 1 27.03.2027 -
Thierry Rendall Correia Venezia Actif 136 / 156 40% 4 26.03.2027 -
Lukas Klostermann RB Leipzig Actif 128 / 148 40% 2 26.03.2027 -
André-Franck Zambo Anguissa Napoli Actif 159 / 177 40% 1 26.03.2027 -
Lewis McCann Fleetwood Town Actif 102 / 109 40% 4 24.03.2027 -
Jordan Brown Blackpool Actif 106 / 94 40% 2 24.03.2027 -
Leo Goglichidze Rodina Actif 118 / 101 40% 5 24.03.2027 -
Harry Williams Walsall Actif 114 / 110 40% 2 24.03.2027 -
Milan Vidakov Radnicki 1923 Actif 98 / 92 40% 2 24.03.2027 -
Pavel Meleshin Sochi Actif 115 / 123 40% 1 24.03.2027 -
Charlie Webster Burton Albion Actif 109 / 128 40% 3 23.03.2027 -
Louis Leroux FC Nantes Actif 130 / 138 40% 1 23.03.2027 -
Daniil Konoplev Dinamo Bryansk Actif 86 / 91 40% 3 20.03.2027 -
Simone Ianesi Pianese Actif 102 / 96 40% 2 20.03.2027 -
Uriël Van Aalst Willem II Actif 100 / 110 40% 4 20.03.2027 -
Maxim Kutovoy Salyut Actif 81 / 91 40% 3 19.03.2027 -
Hakeem Odoffin Luton Town Actif 104 / 111 40% 2 19.03.2027 -
Josh Neufville Bradford City Actif 119 / 117 40% 2 19.03.2027 -
Adnan Courtois KV Oostende Actif 128 / 143 40% 2 19.03.2027 -
Christoph Klarer Birmingham Actif 125 / 131 40% 1 19.03.2027 -
Nikita Pogrebnev Ryazan Actif 79 / 87 40% 1 19.03.2027 -
Albek Gongapshev Shinnik Actif 95 / 103 40% 1 17.03.2027 -
Luis Vázquez Birmingham Actif 129 / 144 40% 1 17.03.2027 -
Nader Mohammadi Spartak Kostroma Actif 98 / 94 40% 2 15.03.2027 -
Zé Carlos Gil Vicente Actif 112 / 120 40% 1 15.03.2027 -
Iker Pozo Rodina Actif 120 / 117 40% 1 15.03.2027 -
Macauley Southam-Hales Bristol Rovers Actif 94 / 86 40% 1 14.03.2027 -
Sebastián Arce Rodina Actif 115 / 114 40% 2 13.03.2027 -
Marc Bola Watford Actif 128 / 121 40% 2 13.03.2027 -
Kirill Danilin Fakel Actif 102 / 96 40% 1 13.03.2027 -
Andrew Moran Preston Actif 133 / 133 40% 1 13.03.2027 -
Clinton Mola Bristol Rovers Actif 96 / 114 40% 1 13.03.2027 -
Sinoxolo Kwayiba Chippa United Actif 111 / 119 40% 1 13.03.2027 -
Brenner Vasco da Gama Actif 117 / 140 40% 1 13.03.2027 -
Israel Oladeji US Forces Armees Actif 77 / 60 40% 1 13.03.2027 -
Sambou Soumano FC Lorient Actif 122 / 131 40% 1 13.03.2027 -
Toby Sibbick Burton Albion Actif 100 / 90 40% 2 10.03.2027 -
Gabriel Sara Galatasaray Actif 141 / 136 40% 2 10.03.2027 -
Dean Campbell Northampton Town Actif 117 / 100 40% 2 10.03.2027 -
Braian Álvarez Arsenal Tula Actif 108 / 91 40% 1 08.03.2027 -
Óscar Al-Diriyah Actif 134 / 123 40% 1 08.03.2027 -
Sam McCallum Sheffield United Actif 129 / 117 40% 1 05.03.2027 -
Jaime Seoane Al-Faisaly Actif 141 / 117 40% 1 05.03.2027 -
Fernand Gouré Westerlo Actif 101 / 124 40% 2 04.03.2027 -
Lewis Freestone Stevenage Actif 104 / 102 40% 4 04.03.2027 -
Mads Roerslev Southampton Actif 125 / 133 40% 1 04.03.2027 -
Sinclair Armstrong Bristol City Actif 112 / 135 40% 1 04.03.2027 -
Job Ochieng Real Sociedad Actif 108 / 123 40% 1 04.03.2027 -
Axel Openda KV Oostende Actif 131 / 117 40% 1 02.03.2027 -
Julio Alonso Huesca Actif 121 / 118 40% 1 02.03.2027 -
Olakunle Olusegun Rostov Actif 119 / 134 40% 1 02.03.2027 -
Kyreece Lisbie Colchester United Actif 112 / 104 40% 3 01.03.2027 -
Fashion Sakala Al-Fayha Actif 123 / 108 40% 1 01.03.2027 -
Ronaldo Rostov Actif 128 / 125 40% 1 01.03.2027 -
Louis Appéré Cambridge United Actif 96 / 93 40% 3 28.02.2027 -
Patryk Szwedzik Ruch Actif 101 / 92 40% 2 28.02.2027 -
Leon Sabua Fakel Actif 92 / 106 40% 1 28.02.2027 -
Johnson Amuzu Berekum Chelsea Actif 94 / 99 40% 1 27.02.2027 -
Ivan Bendera Epicentr Actif 96 / 86 40% 1 27.02.2027 -
Gilson Benchimol Akron Actif 114 / 114 40% 3 26.02.2027 -
Dilan Ortíz Ufa Actif 100 / 100 40% 2 26.02.2027 -
Mohammad Alsalkhadi Damac Actif 109 / 125 40% 2 26.02.2027 -
Stanislav Biblyk Chaika Actif 91 / 100 40% 2 25.02.2027 -
Jan Hurtado Volos NPS Actif 120 / 117 40% 1 25.02.2027 -
Marcos Cuenca Zaragoza Actif 116 / 102 40% 1 25.02.2027 -
Lucas Ness Notts County Actif 92 / 108 40% 1 25.02.2027 -
Gift Mothiba Black Aces Actif 105 / 101 40% 1 25.02.2027 -
Kyle John Port Vale Actif 107 / 100 40% 2 24.02.2027 -
Alan Tsaraev Arsenal Tula Actif 107 / 112 40% 1 24.02.2027 -
Rifat Zhemaletdinov Ural Actif 121 / 112 40% 3 22.02.2027 -
Ítalo Ural Actif 107 / 119 40% 1 22.02.2027 -
Ilja Safronov Rotor Actif 110 / 105 40% 1 22.02.2027 -
Vladimir Khubulov Dinamo Makhachkala Actif 114 / 109 40% 2 21.02.2027 -
Mamadou Traoré Stade Malien Actif 109 / 103 40% 1 21.02.2027 -
Hakeeb Adelakun Doncaster Rovers Actif 96 / 115 40% 1 20.02.2027 -
Tom Pearce Chesterfield Actif 110 / 122 40% 3 19.02.2027 -
Edarlyn Reyes Arsenal Tula Actif 116 / 108 40% 2 19.02.2027 -
Valentín Vada Damac Actif 131 / 121 40% 1 19.02.2027 -
Jordan Storey Preston Actif 118 / 120 40% 2 18.02.2027 -
Radhi Al-Otaibi Al-Ettifaq Actif 119 / 103 40% 1 18.02.2027 -
Miloš Brnović Arsenal Tula Actif 114 / 117 40% 2 16.02.2027 Plus d'infos
Cameron McJannet Grimsby Town Actif 110 / 112 40% 2 16.02.2027 -
Yakou Meïté Damac Actif 120 / 127 40% 1 16.02.2027 -
Ryan Johnson AFC Wimbledon Actif 115 / 114 40% 2 14.02.2027 -
Jonathan Okoronkwo Torpedo Moscow Actif 96 / 111 40% 1 14.02.2027 -
Kamil Conteh Bristol Rovers Actif 101 / 110 40% 1 14.02.2027 -
Fahd Moufi Baltika Refusé 116 / 107 40% 3 12.02.2027 Refuser
Connor Barrett Walsall Actif 98 / 100 40% 2 12.02.2027 -
Luca Connell Barnsley Actif 105 / 105 40% 5 12.02.2027 -
Gavin Kilkenny Swindon Town Actif 110 / 97 40% 1 12.02.2027 -
Daniel Rivillo Rotor Actif 100 / 114 40% 1 12.02.2027 -
Jay Matete Milton Keynes Dons Actif 122 / 96 40% 3 09.02.2027 -
Ryan Stirk Chesterfield Actif 106 / 88 40% 1 09.02.2027 -
Denver Hume Fleetwood Town Refusé 93 / 104 40% 1 09.02.2027 Plus d'infos
Daniel Harvie Wycombe Wanderers Actif 105 / 118 40% 3 08.02.2027 -
Mohamed Azzi Dinamo Makhachkala Actif 113 / 111 40% 1 08.02.2027 -
Ilja Zhigulev Chernomorets Actif 96 / 109 40% 1 08.02.2027 -
Mo Dauda Portimonense Actif 97 / 119 40% 1 08.02.2027 -
Johnly Yfeko Exeter City Actif 107 / 107 40% 3 06.02.2027 -
Armando Lopes Felgueiras Actif 96 / 102 40% 2 06.02.2027 -
Stefan Lončar Akron Actif 115 / 120 40% 1 06.02.2027 -
Kabelo Dlamini Orlando Pirates Actif 95 / 93 40% 1 06.02.2027 -
Diego Murillo Málaga Actif 124 / 111 40% 1 06.02.2027 -
Ognjen Bjeličić Hamrun Spartans Actif 98 / 87 40% 2 05.02.2027 -
Gleb Shevchenko Torpedo Moscow Actif 111 / 114 40% 1 05.02.2027 -
Alistair Smith AFC Wimbledon Actif 97 / 90 40% 1 01.02.2027 -
Danila Shilov Dinamo Stavropol Actif 95 / 92 40% 4 31.01.2027 -
Josh Woods Accrington Stanley Actif 81 / 69 40% 2 31.01.2027 -
Miguel Sousa Leixões Actif 106 / 115 40% 1 31.01.2027 -
Luis Chávez Dinamo Moscow Actif 138 / 132 40% 1 31.01.2027 -
Ousmane Coulibaly Stade Malien Actif 99 / 91 40% 1 31.01.2027 -
Morad Khodari Al-Wehda Actif 96 / 84 40% 1 31.01.2027 -
Soltmurad Bakaev Rodina Actif 113 / 99 40% 2 28.01.2027 -
Dmitry Tsypchenko Torpedo Moscow Actif 103 / 102 40% 1 28.01.2027 -
Brian Figueroa Morelia Actif 118 / 116 40% 1 28.01.2027 -
Daniel Kyerewaa Reading Actif 121 / 110 40% 3 27.01.2027 -
Jhon Palacios Orenburg Actif 113 / 105 40% 2 27.01.2027 -
Vladis Emmersón Yenisey Actif 106 / 104 40% 1 27.01.2027 -
Charles Vernam Grimsby Town Actif 112 / 112 40% 1 27.01.2027 -
Valentin Yefimov Ravan Actif 129 / 128 40% 1 27.01.2027 -
Jack Currie Oxford United Refusé 130 / 131 40% 3 20.01.2027 Refuser
Tomasz Wójtowicz Lechia Actif 104 / 111 40% 2 20.01.2027 -
Nikolay Tarasov Spartak Kostroma Actif 96 / 92 40% 1 19.01.2027 -
Ipalibo Jack Hamrun Spartans Actif 95 / 89 40% 1 19.01.2027 -
Slobodan Tedić Akron Actif 114 / 117 40% 3 18.01.2027 -
Giancarlo Mosta Actif 77 / 81 40% 2 18.01.2027 -
Levan Kakubava Guria Actif 80 / 95 72% 1 18.01.2027 Approuver
Kirill Bogdanets Volna Actif 83 / 95 40% 1 18.01.2027 -
Ramazan Gadjimuradov Chelyabinsk Actif 100 / 104 40% 2 17.01.2027 -
Eldar Ćivić Baltika Actif 113 / 110 40% 2 17.01.2027 -
Corey O'Keeffe Barnsley Actif 114 / 114 40% 1 15.01.2027 -
Gonzalo Gamarra Floriana Actif 93 / 95 40% 1 14.01.2027 -
Ilja Agapov Ufa Actif 117 / 116 40% 1 12.01.2027 -
Simphiwe Selepe Orlando Pirates Actif 108 / 115 40% 1 11.01.2027 -
Jayden Sweeney Grimsby Town Actif 95 / 92 40% 1 11.01.2027 -
Liam Bennett Cambridge United Refusé 112 / 117 40% 2 07.01.2027 Plus d'infos
Revaz Mikautadze Tskhinvali Refusé 106 / 98 72% 1 07.01.2027 Refuser
Nikita Pechenkin Sokol Actif 100 / 94 40% 1 04.01.2027 -
Shaun Rooney Fleetwood Town Refusé 91 / 86 40% 2 02.01.2027 Plus d'infos
Artem Makarchuk Sochi Actif 109 / 109 40% 1 02.01.2027 -
Darko Todorović Fakel Actif 108 / 119 40% 1 02.01.2027 -
Stephen Duke-McKenna KAMAZ Actif 88 / 97 40% 1 29.12.2026 -
Krasian Kolev Chernomorets Actif 96 / 92 40% 1 29.12.2026 -
Daniil Gurchenko Spartak Tambov Actif 87 / 94 40% 2 27.12.2026 -
Jack Lankester Crewe Alexandra Actif 106 / 100 40% 1 25.12.2026 -
Jamie Jellis Walsall Actif 83 / 85 40% 1 25.12.2026 -
Matt Smith Newport County Actif 87 / 87 40% 2 24.12.2026 -
Sergio Lozano Jagiellonia Actif 116 / 132 40% 1 23.12.2026 -
Tenton Yenne Baltika Actif 105 / 103 40% 1 20.12.2026 -
Vladislav Yakovlev Volga Actif 86 / 91 40% 1 19.12.2026 -
Pedro Cejas Zabbar St. Patrick Actif 96 / 105 40% 2 18.12.2026 -
Mikhail Ignatov Sochi Actif 107 / 117 40% 1 17.12.2026 -
Ibragim Umarov Pobeda Actif 90 / 96 40% 1 15.12.2026 -
Mateo Fernández Angusht Actif 71 / 82 40% 4 14.12.2026 -
Pavel Popov Volna Actif 78 / 93 40% 2 14.12.2026 -
Nikita Simdyankin KDV Tomsk Actif 78 / 90 40% 1 13.12.2026 -
Egor Bogomolskiy Zira Actif 108 / 105 40% 1 10.12.2026 -
Dennis Amoako Lokomotivi Actif 80 / 89 40% 1 10.12.2026 -
Tyrese Shade Burton Albion Actif 99 / 100 40% 3 09.12.2026 -
Samy Merheg Alverca Actif 118 / 128 40% 1 09.12.2026 -
Temirkan Sundukov Dinamo Makhachkala Refusé 115 / 101 40% 1 07.12.2026 Plus d'infos
Denil Maldonado Rubin Refusé 112 / 130 40% 1 07.12.2026 Plus d'infos
Jack Vale Alcione Milano Actif 99 / 109 40% 1 04.12.2026 -
Jere Vrcić Birkirkara Actif 82 / 98 40% 1 30.11.2026 -
Yeangel Montero Naxxar Lions Actif 107 / 109 40% 4 29.11.2026 -
Eren Aydın Zira Actif 113 / 109 40% 2 29.11.2026 -
Ousmane Diawara Altach Actif 116 / 90 40% 1 25.11.2026 -
Mahir Abdullayev AZAL Actif 103 / 118 40% 1 24.11.2026 -
Daniil Agureev Amkar Actif 92 / 83 40% 1 24.11.2026 -
Georg Stojanovski Spartak 1918 Actif 103 / 97 40% 1 24.11.2026 -
Miro Dinamo Makhachkala Actif 116 / 116 40% 2 23.11.2026 -
Ivo Costantino Danubio Actif 120 / 125 40% 1 23.11.2026 -
Kamarai Swyer Northampton Town Actif 97 / 82 40% 1 22.11.2026 -
Algassime Bah Dinamo Tbilisi Actif 95 / 100 40% 2 21.11.2026 -
Promise Omochere Bristol Rovers Actif 93 / 106 40% 2 20.11.2026 -
Mésaque Djú Portimonense Actif 99 / 94 40% 1 20.11.2026 -
Isaac Matondo Koper Actif 104 / 103 40% 1 16.11.2026 -
Cavid Madatov Khazar Perdu 93 / 85 40% 2 15.11.2026 -
Ilja Grischenko Kaluga Actif 90 / 85 40% 1 09.11.2026 -
Soslan Lysenko Spartak Nalchik Actif 83 / 84 40% 1 07.11.2026 -
Trévis Dago Stade Lavallois Actif 99 / 105 40% 1 07.11.2026 -
Giorgi Tsetskhladze Kolkheti Actif 89 / 95 40% 1 05.11.2026 -
Denys Rezepov Nyva Actif 101 / 93 40% 1 05.11.2026 -
Gonzalo Córdoba Lokomotivi Actif 100 / 108 40% 2 03.11.2026 -
Mikhail Gainov Dinamo Stavropol Actif 77 / 76 40% 1 03.11.2026 -
Dominik Kocsis Debrecen Actif 102 / 110 40% 1 03.11.2026 -
Davit Gotsiridze Kolkheti Actif 86 / 73 40% 1 29.10.2026 -
Timur Suleimanov Rostov Actif 122 / 127 40% 1 19.10.2026 -
Suraju Lawal Abia Warriors Actif 97 / 73 40% 1 16.10.2026 -
Abdulmajid Aminu Barau Actif 76 / 97 40% 1 15.10.2026 -
Mevran Ablak Sapovnela Actif 75 / 70 40% 1 08.10.2026 -
Andrés Dieppa Zugdidi Actif 97 / 88 40% 1 08.10.2026 -
Elly Saenyi Muranga Seal Actif 81 / 58 40% 1 06.10.2026 -
Ben Stanley Omondi Gor Mahia Actif 79 / 101 40% 1 01.10.2026 -
Jordan Williams Portsmouth Actif 114 / 120 40% 1 01.10.2026 -
Valentín Depietri Talleres Actif 113 / 133 40% 1 28.09.2026 -
Julen Cordero Samtredia Actif 92 / 100 40% 2 27.09.2026 -
Mitch Clark Port Vale Actif 89 / 99 40% 1 27.09.2026 -
Cemran Dansin Orlando Pirates Actif 98 / 128 40% 1 27.09.2026 -
Lasha Menteshashvili Dila Actif 85 / 89 40% 2 23.09.2026 -
Dylan Duffy Chesterfield Actif 106 / 103 40% 1 23.09.2026 -
Vincent Harper Walsall Actif 96 / 106 40% 1 21.09.2026 -
Amza Moubarack Bandari Actif 80 / 85 40% 1 20.09.2026 -
Giorgi Kokhreidze Torpedo Kutaisi Actif 106 / 89 40% 1 20.09.2026 -
Robin Gonzalez HNK Vukovar 1991 Actif 118 / 124 40% 1 20.09.2026 -
Jonathan Sulemana BA All Stars Actif 113 / 120 40% 1 19.09.2026 -
Nodar Lominadze Torpedo Kutaisi Actif 104 / 117 40% 1 19.09.2026 -
Benjamin Böckle Altach Actif 103 / 125 40% 1 18.09.2026 -
Warley Torpedo Kutaisi Actif 90 / 108 40% 1 15.09.2026 -
Yves Koutiama Kenya Police Actif 93 / 76 40% 1 15.09.2026 -
Ayrton Portillo Defensa y Justicia Actif 123 / 121 40% 1 14.09.2026 -
Lucas Souto Defensa y Justicia Actif 118 / 117 40% 1 14.09.2026 -
Jorge Espejo Universidad de Concepcion Actif 116 / 121 40% 1 14.09.2026 -
Mauricio Cardillo San Lorenzo Actif 107 / 111 40% 1 11.09.2026 -
Joshua Nyatini Kakamega Homeboyz Actif 72 / 66 40% 1 07.09.2026 -
Doueugui Mala Merani Actif 84 / 84 42% 1 / 1m 19.08.2026 -
Andro Jolokhava Merani Actif 60 / 65 42% 1 / 1m 12.08.2026 -
Emmanuel Boansi Dila Actif 80 / 85 30% 1 / 1m 12.08.2026 -
Khazbulat Khamkhoev Merani Actif 90 / 90 30% 1 / 1m 12.08.2026 Plus d'infos
Fiacre Ntwari Kaizer Chiefs Actif 97 / 116 40% 1 01.08.2026 -
Svetoslav Vutsov Levski Actif 122 / 134 40% 1 01.08.2026 -